Time;durP1;ratioP1;P1;durP2;ratioP2;P2;SDS_P1;SDS_P2;PMS_P1;PMS_P2;Temp;Humidity;BMP_temperature;BMP_pressure;BME280_temperature;BME280_humidity;BME280_pressure;Samples;Min_cycle;Max_cycle;Signal;HPM_P1;HPM_P2
2021/06/12 00:01:10;;;;;;;7.70;5.43;;;23.00;94.40;;;;;;5098834;28;20176;-79
2021/06/12 00:03:36;;;;;;;5.60;4.23;;;23.00;94.60;;;;;;5109458;28;20341;-79
2021/06/12 00:06:04;;;;;;;5.73;5.00;;;22.90;94.90;;;;;;5107484;28;20233;-78
2021/06/12 00:08:30;;;;;;;5.20;4.73;;;22.90;95.20;;;;;;5091759;28;20574;-79
2021/06/12 00:10:56;;;;;;;7.23;5.77;;;22.90;95.40;;;;;;5109527;28;20729;-79
2021/06/12 00:13:22;;;;;;;7.90;5.47;;;22.90;95.70;;;;;;5115407;28;20594;-78
2021/06/12 00:15:48;;;;;;;8.10;6.20;;;22.90;96.00;;;;;;5117568;28;20581;-79
2021/06/12 00:18:14;;;;;;;6.53;5.67;;;22.90;96.20;;;;;;5116775;28;20564;-78
2021/06/12 00:20:40;;;;;;;6.13;4.77;;;22.90;96.50;;;;;;5115158;28;20577;-79
2021/06/12 00:23:07;;;;;;;5.73;5.03;;;22.80;96.70;;;;;;5098266;28;20605;-79
2021/06/12 00:25:33;;;;;;;5.97;5.37;;;22.80;96.90;;;;;;5097951;28;20578;-79
2021/06/12 00:28:01;;;;;;;5.60;5.10;;;22.80;97.20;;;;;;5097225;28;20659;-78
2021/06/12 00:30:28;;;;;;;6.67;5.13;;;22.80;97.50;;;;;;5099669;28;20618;-78
2021/06/12 00:32:54;;;;;;;7.27;5.87;;;22.80;97.80;;;;;;5097863;28;20598;-79
2021/06/12 00:35:20;;;;;;;7.27;5.90;;;22.80;98.10;;;;;;5097647;28;20923;-79
2021/06/12 00:37:46;;;;;;;6.47;5.80;;;22.80;98.30;;;;;;5094269;28;20178;-79
2021/06/12 00:40:14;;;;;;;9.00;6.73;;;22.70;98.50;;;;;;5098274;28;20661;-79
2021/06/12 00:42:40;;;;;;;7.33;6.03;;;22.70;98.90;;;;;;5093564;28;20677;-79
2021/06/12 00:45:10;;;;;;;6.87;5.97;;;22.70;99.10;;;;;;5093377;28;20582;-80
2021/06/12 00:47:36;;;;;;;8.13;6.50;;;22.70;99.30;;;;;;5093679;28;20562;-79
2021/06/12 00:50:03;;;;;;;6.13;5.53;;;22.70;99.50;;;;;;5094568;28;20605;-80
2021/06/12 00:52:28;;;;;;;7.80;6.27;;;22.70;99.90;;;;;;5092223;28;21024;-79
2021/06/12 00:54:54;;;;;;;7.27;6.57;;;22.70;99.90;;;;;;5092832;28;20629;-80
2021/06/12 00:57:21;;;;;;;5.30;4.80;;;22.70;99.90;;;;;;5092538;28;20179;-80
2021/06/12 00:59:47;;;;;;;7.30;6.50;;;22.70;99.90;;;;;;5092674;28;20562;-80
2021/06/12 01:02:13;;;;;;;7.77;6.03;;;22.60;99.90;;;;;;5094165;28;20707;-80
2021/06/12 01:04:39;;;;;;;7.30;5.83;;;22.60;99.90;;;;;;5092887;28;20183;-80
2021/06/12 01:07:04;;;;;;;7.37;6.57;;;22.60;99.90;;;;;;5093085;28;20170;-80
2021/06/12 01:09:30;;;;;;;9.23;6.70;;;22.60;99.90;;;;;;5093140;28;20167;-80
2021/06/12 01:12:15;;;;;;;8.03;7.23;;;22.60;99.90;;;;;;5075605;28;20199;-80
2021/06/12 01:14:44;;;;;;;8.60;6.90;;;22.50;99.90;;;;;;5094173;28;20937;-80
2021/06/12 01:17:21;;;;;;;8.73;6.93;;;22.60;99.90;;;;;;5096706;28;20560;-79
2021/06/12 01:20:06;;;;;;;7.03;6.40;;;22.50;99.90;;;;;;5079594;28;20928;-79
2021/06/12 01:22:47;;;;;;;8.00;6.70;;;22.50;99.90;;;;;;5098058;28;20589;-79
2021/06/12 01:25:31;;;;;;;8.10;6.83;;;22.50;99.90;;;;;;5099187;28;20562;-79
2021/06/12 01:28:07;;;;;;;9.23;7.83;;;22.40;99.90;;;;;;5097185;28;20589;-79
2021/06/12 01:30:35;;;;;;;9.60;6.90;;;22.40;99.90;;;;;;5095632;28;21045;-79
2021/06/12 01:33:05;;;;;;;8.30;7.23;;;22.30;99.90;;;;;;5096128;28;20654;-79
2021/06/12 01:35:38;;;;;;;9.87;7.30;;;22.30;99.90;;;;;;5098210;28;20573;-79
2021/06/12 01:38:06;;;;;;;7.00;5.60;;;22.30;99.90;;;;;;5097324;28;20566;-79
2021/06/12 01:40:36;;;;;;;6.83;5.30;;;22.30;99.90;;;;;;5097280;28;20577;-79
2021/06/12 01:43:05;;;;;;;8.83;7.50;;;22.20;99.90;;;;;;5095536;28;20681;-79
2021/06/12 01:45:32;;;;;;;7.63;6.10;;;22.20;99.90;;;;;;5099329;28;21057;-79
2021/06/12 01:48:00;;;;;;;8.70;7.17;;;22.20;99.90;;;;;;5090894;28;20566;-79
2021/06/12 01:50:26;;;;;;;8.60;7.10;;;22.20;99.90;;;;;;5101514;28;20605;-80
2021/06/12 01:52:54;;;;;;;7.80;6.90;;;22.10;99.90;;;;;;5101492;28;20599;-79
2021/06/12 01:55:24;;;;;;;6.97;6.27;;;22.10;99.90;;;;;;5096380;28;20596;-79
2021/06/12 01:57:50;;;;;;;9.17;7.07;;;22.10;99.90;;;;;;5095894;28;20684;-79
2021/06/12 02:00:16;;;;;;;7.47;6.70;;;22.00;99.90;;;;;;5084969;28;20598;-79
2021/06/12 02:02:44;;;;;;;8.20;7.17;;;22.00;99.90;;;;;;5080236;28;20933;-79
2021/06/12 02:05:18;;;;;;;8.90;6.80;;;22.00;99.90;;;;;;5098511;28;20585;-79
2021/06/12 02:07:48;;;;;;;11.50;7.10;;;22.10;99.90;;;;;;5079612;28;20597;-79
2021/06/12 02:10:26;;;;;;;8.80;5.87;;;22.10;99.90;;;;;;5100224;28;20723;-79
2021/06/12 02:12:52;;;;;;;9.47;7.17;;;22.10;99.90;;;;;;5098545;28;20549;-79
2021/06/12 02:15:21;;;;;;;10.17;7.43;;;22.20;99.90;;;;;;5099445;28;20568;-79
2021/06/12 02:17:48;;;;;;;12.57;8.33;;;22.20;99.90;;;;;;5097828;28;20585;-79
2021/06/12 02:20:14;;;;;;;9.53;8.07;;;22.20;99.90;;;;;;5103492;28;20608;-78
2021/06/12 02:22:43;;;;;;;10.10;8.10;;;22.30;99.90;;;;;;5102693;28;20588;-79
2021/06/12 02:25:11;;;;;;;11.70;7.97;;;22.30;99.90;;;;;;5089900;28;20572;-79
2021/06/12 02:27:38;;;;;;;13.13;8.27;;;22.40;99.90;;;;;;5107361;28;20578;-79
2021/06/12 02:30:06;;;;;;;9.27;6.50;;;22.40;99.90;;;;;;5087449;28;20636;-79
2021/06/12 02:32:36;;;;;;;11.47;8.20;;;22.40;99.90;;;;;;5103528;28;20561;-79
2021/06/12 02:35:07;;;;;;;14.40;8.40;;;22.50;99.90;;;;;;5101038;28;20585;-79
2021/06/12 02:37:33;;;;;;;11.80;9.10;;;22.50;99.90;;;;;;5101461;28;20585;-79
2021/06/12 02:39:58;;;;;;;10.13;8.23;;;22.50;99.90;;;;;;5098126;28;21120;-80
2021/06/12 02:42:24;;;;;;;10.87;8.70;;;22.50;99.90;;;;;;5098973;28;20558;-79
2021/06/12 02:44:50;;;;;;;10.70;9.07;;;22.50;99.90;;;;;;5100579;28;20241;-79
2021/06/12 02:47:17;;;;;;;10.13;8.33;;;22.60;99.90;;;;;;5098250;28;20647;-80
2021/06/12 02:49:44;;;;;;;15.03;10.20;;;22.60;99.90;;;;;;5099606;28;20168;-79
2021/06/12 02:52:19;;;;;;;11.47;9.10;;;22.60;99.90;;;;;;5098014;28;20672;-80
2021/06/12 02:54:46;;;;;;;12.77;9.80;;;22.60;99.90;;;;;;5100373;28;21526;-79
2021/06/12 02:57:13;;;;;;;10.43;8.57;;;22.60;99.90;;;;;;5107719;28;21087;-79
2021/06/12 02:59:43;;;;;;;12.50;8.83;;;22.60;99.90;;;;;;5101660;28;20565;-79
2021/06/12 03:02:10;;;;;;;10.30;8.67;;;22.60;99.90;;;;;;5102040;28;20570;-79
2021/06/12 03:04:38;;;;;;;14.37;8.97;;;22.60;99.90;;;;;;5104550;28;20605;-80
2021/06/12 03:07:05;;;;;;;9.40;7.00;;;22.60;99.90;;;;;;5097594;28;20611;-79
2021/06/12 03:09:31;;;;;;;9.83;8.20;;;22.60;99.90;;;;;;5081446;28;20688;-79
2021/06/12 03:11:57;;;;;;;14.07;8.53;;;22.60;99.90;;;;;;5100322;28;20628;-79
2021/06/12 03:14:25;;;;;;;10.50;8.30;;;22.60;99.90;;;;;;5101169;28;20593;-79
2021/06/12 03:16:51;;;;;;;9.47;8.47;;;22.60;99.90;;;;;;5100722;28;20657;-79
2021/06/12 03:19:17;;;;;;;13.33;10.17;;;22.60;99.90;;;;;;5104008;28;21112;-79
2021/06/12 03:21:45;;;;;;;12.00;8.90;;;22.60;99.90;;;;;;5089562;28;20589;-79
2021/06/12 03:24:12;;;;;;;14.37;9.00;;;22.60;99.90;;;;;;5107457;28;20966;-79
2021/06/12 03:26:38;;;;;;;12.17;9.50;;;22.60;99.90;;;;;;5102514;28;20574;-79
2021/06/12 03:29:05;;;;;;;11.07;9.23;;;22.60;99.90;;;;;;5100729;28;20623;-79
2021/06/12 03:31:31;;;;;;;11.57;10.00;;;22.60;99.90;;;;;;5099359;28;20613;-79
2021/06/12 03:33:57;;;;;;;10.60;8.47;;;22.60;99.90;;;;;;5099267;28;20605;-79
2021/06/12 03:36:25;;;;;;;14.00;8.10;;;22.60;99.90;;;;;;5100329;28;20553;-79
2021/06/12 03:38:51;;;;;;;9.57;8.13;;;22.60;99.90;;;;;;5061129;28;20584;-76
2021/06/12 03:41:18;;;;;;;11.13;9.53;;;22.60;99.90;;;;;;5092080;28;20673;-76
2021/06/12 03:43:45;;;;;;;12.77;9.50;;;22.60;99.90;;;;;;5093188;28;21169;-75
2021/06/12 03:46:15;;;;;;;11.30;9.40;;;22.60;99.90;;;;;;5086443;28;20950;-75
2021/06/12 03:48:44;;;;;;;11.07;9.07;;;22.60;99.90;;;;;;5071105;28;20989;-75
2021/06/12 03:51:12;;;;;;;10.77;9.07;;;22.60;99.90;;;;;;5072974;28;20614;-76
2021/06/12 03:53:44;;;;;;;11.47;9.40;;;22.60;99.90;;;;;;5075254;28;20949;-76
2021/06/12 03:56:12;;;;;;;14.00;10.33;;;22.60;99.90;;;;;;5092066;28;20612;-76
2021/06/12 03:58:40;;;;;;;11.13;8.70;;;22.60;99.90;;;;;;5092490;28;20561;-75
2021/06/12 04:01:06;;;;;;;10.80;9.30;;;22.60;99.90;;;;;;5074747;28;20578;-75
2021/06/12 04:03:32;;;;;;;10.57;7.90;;;22.60;99.90;;;;;;5092924;28;20598;-76
2021/06/12 04:05:57;;;;;;;11.23;9.43;;;22.60;99.90;;;;;;5074711;28;20221;-75
2021/06/12 04:08:23;;;;;;;12.40;9.87;;;22.60;99.90;;;;;;5092451;28;20168;-75
2021/06/12 04:10:49;;;;;;;11.53;9.43;;;22.70;99.90;;;;;;5092666;28;20210;-76
2021/06/12 04:13:14;;;;;;;10.40;8.27;;;22.70;99.90;;;;;;5074594;28;20609;-76
2021/06/12 04:15:40;;;;;;;12.57;9.37;;;22.70;99.90;;;;;;5092618;28;20164;-76
2021/06/12 04:18:09;;;;;;;13.73;9.23;;;22.70;99.90;;;;;;5091982;28;20276;-76
2021/06/12 04:20:37;;;;;;;12.47;9.33;;;22.80;99.90;;;;;;5092596;28;20194;-76
2021/06/12 04:23:03;;;;;;;13.03;8.50;;;22.80;99.90;;;;;;5092408;28;20597;-76
2021/06/12 04:25:29;;;;;;;11.97;8.57;;;22.80;99.90;;;;;;5092496;28;20561;-76
2021/06/12 04:27:54;;;;;;;12.70;9.37;;;22.90;99.90;;;;;;5073903;28;20214;-76
2021/06/12 04:30:21;;;;;;;13.10;10.00;;;22.90;99.90;;;;;;5092503;28;20191;-76
2021/06/12 04:32:47;;;;;;;12.10;10.17;;;22.90;99.90;;;;;;5073923;28;20191;-76
2021/06/12 04:35:14;;;;;;;11.23;8.93;;;22.90;99.90;;;;;;5092356;28;20578;-76
2021/06/12 04:37:41;;;;;;;10.80;9.50;;;22.90;99.90;;;;;;5073815;28;20981;-75
2021/06/12 04:40:08;;;;;;;11.37;8.63;;;23.00;99.90;;;;;;5092355;28;20619;-76
2021/06/12 04:42:34;;;;;;;10.70;8.20;;;22.90;99.90;;;;;;5073951;28;20593;-76
2021/06/12 04:45:00;;;;;;;11.10;7.30;;;23.00;99.90;;;;;;5073925;28;21008;-76
2021/06/12 04:47:26;;;;;;;9.27;7.60;;;23.00;99.90;;;;;;5091907;28;20171;-76
2021/06/12 04:49:52;;;;;;;9.90;7.93;;;23.00;99.90;;;;;;5092043;28;20164;-76
2021/06/12 04:52:17;;;;;;;12.60;7.60;;;23.00;99.90;;;;;;5074100;28;20163;-76
2021/06/12 04:54:43;;;;;;;8.63;7.50;;;23.00;99.90;;;;;;5091971;28;20194;-76
2021/06/12 04:57:09;;;;;;;10.33;8.50;;;23.00;99.90;;;;;;5073630;28;20232;-76
2021/06/12 04:59:34;;;;;;;10.00;7.03;;;23.00;99.90;;;;;;5073911;28;20254;-76
2021/06/12 05:02:00;;;;;;;13.53;6.83;;;23.00;99.90;;;;;;5091912;28;20167;-76
2021/06/12 05:04:29;;;;;;;8.43;6.43;;;23.00;99.90;;;;;;5074024;28;20237;-76
2021/06/12 05:06:55;;;;;;;10.70;5.80;;;23.00;99.90;;;;;;5091400;28;20894;-76
2021/06/12 05:09:21;;;;;;;6.27;5.43;;;23.10;99.90;;;;;;5073760;28;20585;-76
2021/06/12 05:11:46;;;;;;;6.83;5.70;;;23.20;99.90;;;;;;5057153;28;20213;-76
2021/06/12 05:14:12;;;;;;;7.23;4.90;;;23.30;99.90;;;;;;5092024;28;20202;-76
2021/06/12 05:16:39;;;;;;;6.20;4.30;;;23.50;99.90;;;;;;5091453;28;20535;-76
2021/06/12 05:19:05;;;;;;;5.13;4.63;;;23.60;99.90;;;;;;5073696;28;20168;-76
2021/06/12 05:21:33;;;;;;;8.27;4.37;;;23.70;99.90;;;;;;5073696;28;21227;-76
2021/06/12 05:23:59;;;;;;;5.33;4.10;;;23.90;99.90;;;;;;5091417;28;21025;-76
2021/06/12 05:26:25;;;;;;;4.30;3.90;;;24.00;99.90;;;;;;5073054;28;20588;-76
2021/06/12 05:28:51;;;;;;;5.73;4.17;;;24.10;99.90;;;;;;5091641;28;20569;-76
2021/06/12 05:31:16;;;;;;;6.27;3.93;;;24.20;99.90;;;;;;5076338;28;20195;-76
2021/06/12 05:33:42;;;;;;;8.73;4.10;;;24.30;99.90;;;;;;5095558;28;20612;-76
2021/06/12 05:36:08;;;;;;;2.87;2.60;;;24.40;99.90;;;;;;5095783;28;20166;-76
2021/06/12 05:38:34;;;;;;;3.00;2.37;;;24.50;99.90;;;;;;5083995;28;20173;-76
2021/06/12 05:41:00;;;;;;;4.70;2.90;;;24.50;99.90;;;;;;5088179;28;20913;-76
2021/06/12 05:43:26;;;;;;;4.00;2.33;;;24.60;99.90;;;;;;5077460;28;20924;-76
2021/06/12 05:45:52;;;;;;;11.97;2.80;;;24.60;99.90;;;;;;5095702;28;20619;-75
2021/06/12 05:48:18;;;;;;;4.60;2.40;;;24.70;99.90;;;;;;5095113;28;20160;-78
2021/06/12 05:50:43;;;;;;;3.97;2.90;;;24.80;99.90;;;;;;5077333;28;20675;-75
2021/06/12 05:53:09;;;;;;;2.63;1.60;;;24.90;99.90;;;;;;5095310;28;20604;-75
2021/06/12 05:55:35;;;;;;;2.17;1.50;;;25.20;99.90;;;;;;5095541;28;20172;-75
2021/06/12 05:58:01;;;;;;;2.63;1.87;;;25.40;99.90;;;;;;5087493;28;20164;-78
2021/06/12 06:00:27;;;;;;;2.23;1.63;;;25.80;99.90;;;;;;5076928;28;20184;-78
2021/06/12 06:02:53;;;;;;;3.10;1.30;;;26.50;99.90;;;;;;5083800;28;20176;-79
2021/06/12 06:05:19;;;;;;;2.43;2.00;;;27.20;99.90;;;;;;5084654;28;20573;-79
2021/06/12 06:07:44;;;;;;;1.87;1.30;;;27.90;99.90;;;;;;5084993;28;20180;-78
2021/06/12 06:10:11;;;;;;;2.40;1.47;;;28.50;99.90;;;;;;5095274;28;20203;-79
2021/06/12 06:12:37;;;;;;;2.20;1.50;;;29.00;99.90;;;;;;5095096;28;20176;-78
2021/06/12 06:15:05;;;;;;;2.40;1.60;;;29.60;99.90;;;;;;5091882;28;20577;-78
2021/06/12 06:17:30;;;;;;;2.23;1.47;;;30.20;99.90;;;;;;5076415;28;20579;-78
2021/06/12 06:19:56;;;;;;;2.70;1.53;;;30.80;99.90;;;;;;5082092;28;21148;-77
2021/06/12 06:22:22;;;;;;;1.97;1.23;;;31.30;99.90;;;;;;5085096;28;20197;-76
2021/06/12 06:24:48;;;;;;;2.07;1.30;;;31.80;99.90;;;;;;5094693;28;20610;-76
2021/06/12 06:27:13;;;;;;;2.10;1.37;;;32.30;99.40;;;;;;5076345;28;20180;-76
2021/06/12 06:29:39;;;;;;;1.50;0.93;;;32.60;98.20;;;;;;5094493;28;20172;-77
2021/06/12 06:32:05;;;;;;;1.90;1.20;;;32.90;96.60;;;;;;5094354;28;20569;-76
2021/06/12 06:34:31;;;;;;;1.77;1.10;;;32.70;95.00;;;;;;5094387;28;20199;-76
2021/06/12 06:36:57;;;;;;;1.47;0.97;;;32.50;93.90;;;;;;5093059;28;20570;-76
2021/06/12 06:39:22;;;;;;;2.30;1.00;;;32.40;93.50;;;;;;5076376;28;20198;-76
2021/06/12 06:41:48;;;;;;;2.57;1.10;;;32.50;93.60;;;;;;5094629;28;20168;-77
2021/06/12 06:44:14;;;;;;;3.37;1.50;;;32.40;92.80;;;;;;5095561;28;20218;-79
2021/06/12 06:46:41;;;;;;;2.97;2.00;;;32.20;91.80;;;;;;5075493;28;20176;-78
2021/06/12 06:49:06;;;;;;;3.30;1.87;;;32.00;91.30;;;;;;5094864;28;20213;-78
2021/06/12 06:51:32;;;;;;;2.87;1.80;;;31.70;90.80;;;;;;5094758;28;20652;-79
2021/06/12 06:53:58;;;;;;;2.33;1.30;;;31.50;90.60;;;;;;5094675;28;20190;-79
2021/06/12 06:56:23;;;;;;;2.40;1.17;;;31.40;90.60;;;;;;5094117;28;20172;-79
2021/06/12 06:58:49;;;;;;;2.43;1.00;;;31.20;90.50;;;;;;5076161;28;20632;-79
2021/06/12 07:01:15;;;;;;;6.43;1.27;;;31.00;90.30;;;;;;5094455;28;20175;-79
2021/06/12 07:03:41;;;;;;;3.23;1.47;;;30.70;90.00;;;;;;5094147;28;20198;-79
2021/06/12 07:06:06;;;;;;;2.80;1.40;;;30.40;90.00;;;;;;5094143;28;20190;-79
2021/06/12 07:08:32;;;;;;;2.60;1.50;;;30.20;89.70;;;;;;5059203;28;20180;-79
2021/06/12 07:10:58;;;;;;;2.30;1.70;;;30.10;90.10;;;;;;5094334;28;20203;-78
2021/06/12 07:13:24;;;;;;;1.90;1.30;;;30.30;90.60;;;;;;5059212;28;20222;-79
2021/06/12 07:15:50;;;;;;;2.73;1.60;;;30.50;90.80;;;;;;5076265;28;20171;-76
2021/06/12 07:18:16;;;;;;;5.50;2.07;;;30.80;90.70;;;;;;5076575;28;20637;-76
2021/06/12 07:20:46;;;;;;;2.87;2.47;;;31.10;90.40;;;;;;5100513;28;20566;-75
2021/06/12 07:23:15;;;;;;;5.60;2.80;;;31.30;89.60;;;;;;5097580;28;20586;-76
2021/06/12 07:25:42;;;;;;;3.27;2.30;;;31.50;89.30;;;;;;5097032;28;21163;-76
2021/06/12 07:28:08;;;;;;;4.30;2.70;;;31.80;89.00;;;;;;5079508;28;20668;-76
2021/06/12 07:30:39;;;;;;;2.77;2.47;;;32.00;87.70;;;;;;5097639;28;21174;-75
2021/06/12 07:33:07;;;;;;;2.60;2.20;;;32.20;86.80;;;;;;5075820;28;20770;-76
2021/06/12 07:35:39;;;;;;;3.80;3.23;;;32.60;87.30;;;;;;5116944;22;20701;-83
2021/06/12 07:38:36;;;;;;;2.87;2.60;;;33.00;86.90;;;;;;5091361;28;20593;-83
2021/06/12 07:41:08;;;;;;;4.07;2.87;;;33.40;85.00;;;;;;5079326;28;20577;-82
2021/06/12 07:43:34;;;;;;;4.33;2.67;;;33.40;83.00;;;;;;5079225;28;20581;-83
2021/06/12 07:46:00;;;;;;;3.00;2.47;;;33.10;80.90;;;;;;5112780;28;20932;-83
2021/06/12 07:48:28;;;;;;;5.10;2.47;;;32.80;80.00;;;;;;5112808;28;20159;-83
2021/06/12 07:50:54;;;;;;;3.40;2.43;;;32.30;78.20;;;;;;5112604;28;20206;-77
2021/06/12 07:53:19;;;;;;;3.10;2.80;;;31.80;78.50;;;;;;5111928;28;20566;-78
2021/06/12 07:55:45;;;;;;;4.30;2.40;;;31.40;79.00;;;;;;5095354;28;20187;-76
2021/06/12 07:58:14;;;;;;;3.47;2.87;;;30.90;79.10;;;;;;5113217;28;20169;-77
2021/06/12 08:00:40;;;;;;;4.33;3.03;;;30.50;79.60;;;;;;5113757;28;20322;-82
2021/06/12 08:03:08;;;;;;;3.67;3.13;;;30.00;79.90;;;;;;5100620;28;20630;-81
2021/06/12 08:05:34;;;;;;;5.73;4.27;;;29.50;80.40;;;;;;5095255;28;20255;-81
2021/06/12 08:08:00;;;;;;;5.50;5.00;;;29.10;81.00;;;;;;5090175;28;20573;-83
2021/06/12 08:10:26;;;;;;;4.27;3.87;;;28.70;82.00;;;;;;5124097;28;20944;-83
2021/06/12 08:12:55;;;;;;;3.90;3.60;;;28.30;82.90;;;;;;5123349;28;20706;-84
2021/06/12 08:15:23;;;;;;;4.77;4.17;;;27.90;84.40;;;;;;5126546;28;20592;-82
2021/06/12 08:17:49;;;;;;;3.83;3.50;;;27.60;85.00;;;;;;5117893;28;20576;-81
2021/06/12 08:20:15;;;;;;;3.70;3.40;;;27.30;85.80;;;;;;5095013;28;20583;-80
2021/06/12 08:22:41;;;;;;;4.53;4.23;;;27.10;86.50;;;;;;5112090;28;20642;-78
2021/06/12 08:25:09;;;;;;;5.90;5.40;;;26.90;87.10;;;;;;5113563;28;21175;-81
2021/06/12 08:27:35;;;;;;;8.83;7.60;;;26.60;87.60;;;;;;5117490;28;20235;-82
2021/06/12 08:30:06;;;;;;;8.27;7.57;;;26.40;88.50;;;;;;5118414;28;20573;-82
2021/06/12 08:32:31;;;;;;;8.50;7.70;;;26.20;89.70;;;;;;5118592;28;20584;-82
2021/06/12 08:35:02;;;;;;;7.93;7.20;;;26.00;90.00;;;;;;5116546;28;20608;-82
2021/06/12 08:37:28;;;;;;;8.07;7.37;;;25.90;90.40;;;;;;5119104;28;20661;-82
2021/06/12 08:39:55;;;;;;;8.17;7.57;;;25.70;90.60;;;;;;5123776;28;20592;-82
2021/06/12 08:42:21;;;;;;;6.53;6.00;;;25.50;90.80;;;;;;5116205;28;20186;-83
2021/06/12 08:44:47;;;;;;;6.90;6.30;;;25.30;91.20;;;;;;5099033;28;20617;-82
2021/06/12 08:47:18;;;;;;;9.03;8.20;;;25.10;91.50;;;;;;5099123;28;20946;-82
2021/06/12 08:49:44;;;;;;;9.93;9.00;;;25.00;92.00;;;;;;5116014;28;20608;-81
2021/06/12 08:52:10;;;;;;;7.93;7.33;;;24.80;92.30;;;;;;5098464;28;20659;-81
2021/06/12 08:54:42;;;;;;;7.83;7.03;;;24.60;92.60;;;;;;5097779;28;20639;-81
2021/06/12 08:57:09;;;;;;;7.33;6.67;;;24.50;93.00;;;;;;5101908;28;20589;-82
2021/06/12 08:59:35;;;;;;;6.40;5.87;;;24.30;93.30;;;;;;5103029;28;20605;-81
2021/06/12 09:02:05;;;;;;;6.20;5.70;;;24.20;93.70;;;;;;5098561;28;20621;-83
2021/06/12 09:04:34;;;;;;;5.37;4.87;;;24.20;94.20;;;;;;5094908;28;20641;-83
2021/06/12 09:07:19;;;;;;;7.77;6.50;;;24.10;94.60;;;;;;5101650;28;20570;-81
2021/06/12 09:09:49;;;;;;;6.63;6.03;;;24.10;95.10;;;;;;5099177;28;21066;-84
2021/06/12 09:12:15;;;;;;;6.90;6.30;;;24.00;95.10;;;;;;5090760;28;20622;-80
2021/06/12 09:14:41;;;;;;;7.30;6.70;;;23.90;95.30;;;;;;5103186;28;20929;-77
2021/06/12 09:17:07;;;;;;;6.03;5.57;;;23.90;95.70;;;;;;5090147;28;21036;-77
2021/06/12 09:19:42;;;;;;;6.67;6.10;;;23.80;95.90;;;;;;5091464;28;20638;-78
2021/06/12 09:22:13;;;;;;;7.10;6.40;;;23.70;96.50;;;;;;5090909;28;20553;-79
2021/06/12 09:24:45;;;;;;;11.63;8.13;;;23.60;96.50;;;;;;5090219;28;20621;-79
2021/06/12 09:27:16;;;;;;;8.60;7.80;;;23.60;97.00;;;;;;5091374;28;20665;-77
2021/06/12 09:29:53;;;;;;;7.77;7.07;;;23.50;97.30;;;;;;5091166;28;20590;-79
2021/06/12 09:32:33;;;;;;;7.23;6.47;;;23.50;97.50;;;;;;5076633;28;21191;-78
2021/06/12 09:35:07;;;;;;;6.63;5.93;;;23.40;97.80;;;;;;5092552;28;20637;-79
2021/06/12 09:37:36;;;;;;;7.07;6.37;;;23.50;98.30;;;;;;5078612;28;21137;-80
2021/06/12 09:40:13;;;;;;;7.50;5.53;;;23.50;98.50;;;;;;5060124;28;20574;-80
2021/06/12 09:42:44;;;;;;;7.57;5.40;;;23.50;98.90;;;;;;5091825;28;20562;-80
2021/06/12 09:45:17;;;;;;;6.67;6.07;;;23.60;99.30;;;;;;5090961;28;20606;-80
2021/06/12 09:47:44;;;;;;;6.07;5.57;;;23.70;99.50;;;;;;5089956;28;20586;-81
2021/06/12 09:50:17;;;;;;;7.17;6.57;;;23.80;99.80;;;;;;5092489;28;20697;-81
2021/06/12 09:52:48;;;;;;;8.23;6.53;;;24.00;99.90;;;;;;5091981;28;20572;-81
2021/06/12 09:55:40;;;;;;;6.27;5.63;;;24.20;99.90;;;;;;5092758;28;20604;-80
2021/06/12 09:58:09;;;;;;;5.87;5.37;;;24.40;99.90;;;;;;5089027;28;20593;-79
2021/06/12 10:00:45;;;;;;;7.90;5.07;;;24.80;99.90;;;;;;5106013;28;20577;-79
2021/06/12 10:03:26;;;;;;;9.03;8.17;;;25.20;99.90;;;;;;5088743;28;20605;-79
2021/06/12 10:06:17;;;;;;;7.37;6.47;;;25.70;99.90;;;;;;5114651;28;20663;-80
2021/06/12 10:08:46;;;;;;;5.70;5.13;;;26.10;99.90;;;;;;5099198;28;20716;-81
2021/06/12 10:11:13;;;;;;;6.03;5.53;;;26.50;99.70;;;;;;5103678;28;20606;-81
2021/06/12 10:13:43;;;;;;;5.03;4.63;;;26.70;99.00;;;;;;5105583;28;20569;-80
2021/06/12 10:16:11;;;;;;;4.60;4.20;;;26.80;98.50;;;;;;5108510;28;20596;-80
2021/06/12 10:18:40;;;;;;;6.27;5.40;;;26.90;98.10;;;;;;5110125;28;20577;-80
2021/06/12 10:21:12;;;;;;;4.73;4.33;;;26.90;97.70;;;;;;5109892;28;20656;-80
2021/06/12 10:23:40;;;;;;;4.73;4.33;;;26.80;97.40;;;;;;5103532;28;20573;-79
2021/06/12 10:26:11;;;;;;;4.90;4.23;;;26.90;97.60;;;;;;5089675;28;21211;-82
2021/06/12 10:28:37;;;;;;;3.77;3.47;;;26.90;97.60;;;;;;5094560;28;20570;-84
2021/06/12 10:31:06;;;;;;;6.10;4.60;;;26.90;97.20;;;;;;5086369;28;20637;-80
2021/06/12 10:33:34;;;;;;;6.10;4.37;;;27.00;97.20;;;;;;5103639;28;20955;-79
2021/06/12 10:36:13;;;;;;;5.03;4.63;;;27.10;97.10;;;;;;5087093;28;20993;-80
2021/06/12 10:39:00;;;;;;;6.53;5.60;;;27.10;96.70;;;;;;5100980;28;20984;-79
2021/06/12 10:41:33;;;;;;;5.90;5.40;;;27.10;96.70;;;;;;5101592;28;20570;-80
2021/06/12 10:44:03;;;;;;;6.53;5.93;;;27.10;96.60;;;;;;5098471;28;20656;-80
2021/06/12 10:46:44;;;;;;;5.77;5.10;;;27.10;96.40;;;;;;5098684;28;20609;-81
2021/06/12 10:49:10;;;;;;;7.40;5.07;;;27.10;96.30;;;;;;5097727;28;21185;-82
2021/06/12 10:51:44;;;;;;;6.60;6.10;;;27.10;96.40;;;;;;5095196;28;21218;-83
2021/06/12 10:54:26;;;;;;;7.50;6.70;;;27.10;96.30;;;;;;5094833;28;20672;-83
2021/06/12 10:57:03;;;;;;;6.60;5.90;;;27.20;96.20;;;;;;5101580;28;20604;-81
2021/06/12 10:59:44;;;;;;;5.80;5.30;;;27.30;96.20;;;;;;5089485;28;20609;-79
2021/06/12 11:02:31;;;;;;;5.63;5.13;;;27.40;96.30;;;;;;5076994;28;20623;-79
2021/06/12 11:05:10;;;;;;;6.03;5.43;;;27.60;96.30;;;;;;5095901;28;20628;-78
2021/06/12 11:07:43;;;;;;;9.40;6.87;;;27.80;96.00;;;;;;5076727;28;20688;-80
2021/06/12 11:10:12;;;;;;;6.90;6.07;;;27.90;95.70;;;;;;5094000;28;20577;-78
2021/06/12 11:12:42;;;;;;;6.70;6.00;;;28.00;95.30;;;;;;5086322;28;20580;-80
2021/06/12 11:15:21;;;;;;;6.70;6.10;;;28.10;95.30;;;;;;5108166;28;20597;-80
2021/06/12 11:18:18;;;;;;;8.00;6.27;;;28.20;95.00;;;;;;5102677;28;20680;-79
2021/06/12 11:21:06;;;;;;;6.50;4.57;;;28.20;94.50;;;;;;5115716;28;20568;-80
2021/06/12 11:23:53;;;;;;;8.47;6.07;;;28.20;94.10;;;;;;5116925;28;20614;-82
2021/06/12 11:26:19;;;;;;;6.90;5.80;;;28.10;93.90;;;;;;5081163;28;20623;-83
2021/06/12 11:29:10;;;;;;;7.50;6.80;;;28.00;93.70;;;;;;5097015;28;20581;-82
2021/06/12 11:31:41;;;;;;;7.27;6.57;;;28.00;94.10;;;;;;5099395;28;20617;-83
2021/06/12 11:34:21;;;;;;;8.00;7.23;;;28.20;94.20;;;;;;5084029;28;20898;-82
2021/06/12 11:36:50;;;;;;;6.90;6.30;;;28.40;94.40;;;;;;5081129;28;20577;-83
2021/06/12 11:39:19;;;;;;;10.43;7.90;;;28.70;94.50;;;;;;5095956;28;20580;-83
2021/06/12 11:41:51;;;;;;;8.20;7.40;;;28.90;94.20;;;;;;5098810;28;20593;-83
2021/06/12 11:44:17;;;;;;;9.37;8.43;;;29.20;93.90;;;;;;5095813;28;20604;-82
2021/06/12 11:46:45;;;;;;;8.80;8.10;;;29.40;93.30;;;;;;5076622;28;20654;-81
2021/06/12 11:49:13;;;;;;;7.80;7.10;;;29.60;92.90;;;;;;5087604;28;20566;-81
2021/06/12 11:51:48;;;;;;;8.63;7.83;;;29.70;92.40;;;;;;5102916;28;20614;-81
2021/06/12 11:54:21;;;;;;;8.53;7.73;;;29.90;92.10;;;;;;5092526;28;20561;-80
2021/06/12 11:56:57;;;;;;;9.17;7.90;;;30.10;91.80;;;;;;5058216;28;21124;-81
2021/06/12 11:59:48;;;;;;;9.60;8.70;;;30.20;90.90;;;;;;5089076;28;20614;-85
2021/06/12 12:02:17;;;;;;;8.57;7.77;;;30.20;90.10;;;;;;5058664;28;20586;-84
2021/06/12 12:04:57;;;;;;;8.70;7.83;;;30.20;89.00;;;;;;5092629;28;20604;-85
2021/06/12 12:07:23;;;;;;;9.60;7.40;;;30.10;88.30;;;;;;5058602;28;21497;-83
2021/06/12 12:10:00;;;;;;;7.53;6.90;;;30.10;89.30;;;;;;5093123;28;20557;-83
2021/06/12 12:12:35;;;;;;;8.07;7.30;;;30.10;88.20;;;;;;5075977;28;20584;-84
2021/06/12 12:15:02;;;;;;;9.00;8.20;;;30.20;87.60;;;;;;5058842;28;20589;-84
2021/06/12 12:17:31;;;;;;;9.73;8.73;;;30.20;87.00;;;;;;5077529;28;20569;-84
2021/06/12 12:20:02;;;;;;;8.30;7.50;;;30.10;85.80;;;;;;5094308;28;20557;-84
2021/06/12 12:22:58;;;;;;;8.23;7.53;;;29.90;85.20;;;;;;5077904;28;20565;-83
2021/06/12 12:25:33;;;;;;;10.60;8.87;;;29.70;84.60;;;;;;5082329;28;20635;-84
2021/06/12 12:28:08;;;;;;;11.67;7.80;;;29.50;83.50;;;;;;5073780;28;21002;-85
2021/06/12 12:30:49;;;;;;;8.33;7.53;;;29.30;84.60;;;;;;5074657;28;20841;-85
2021/06/12 12:33:20;;;;;;;11.50;8.67;;;29.30;84.60;;;;;;5074861;28;20572;-84
2021/06/12 12:36:02;;;;;;;8.83;7.70;;;29.30;85.50;;;;;;5074897;28;20627;-83
2021/06/12 12:38:37;;;;;;;9.60;8.23;;;29.30;86.10;;;;;;5073544;28;20570;-85
2021/06/12 12:41:07;;;;;;;9.20;8.40;;;29.40;86.20;;;;;;5074301;28;20577;-85
2021/06/12 12:43:35;;;;;;;9.67;8.53;;;29.40;85.40;;;;;;5082457;28;20572;-86
2021/06/12 12:46:04;;;;;;;9.00;7.57;;;29.50;83.50;;;;;;5075982;28;20671;-83
2021/06/12 12:48:40;;;;;;;9.37;8.50;;;29.30;82.20;;;;;;5091870;28;21059;-85
2021/06/12 12:51:07;;;;;;;8.17;7.37;;;29.10;81.50;;;;;;5092716;28;20645;-84
2021/06/12 12:54:09;;;;;;;7.63;6.43;;;28.90;81.20;;;;;;5062685;28;20681;-85
2021/06/12 12:56:56;;;;;;;8.40;7.57;;;28.60;81.30;;;;;;5093998;28;20589;-84